createdAt,value
2018-02-17T00:00:10.565Z,99.90
2018-02-17T00:02:38.804Z,99.90
2018-02-17T00:05:06.284Z,99.90
2018-02-17T00:07:33.744Z,99.90
2018-02-17T00:10:01.214Z,99.90
2018-02-17T00:12:29.461Z,99.90
2018-02-17T00:14:56.953Z,99.90
2018-02-17T00:17:25.191Z,99.90
2018-02-17T00:19:52.669Z,99.90
2018-02-17T00:22:20.143Z,99.90
2018-02-17T00:24:47.695Z,99.90
2018-02-17T00:27:15.361Z,99.90
2018-02-17T00:29:42.837Z,99.90
2018-02-17T00:32:10.305Z,99.90
2018-02-17T00:34:37.783Z,99.90
2018-02-17T00:37:05.262Z,99.90
2018-02-17T00:39:32.753Z,99.90
2018-02-17T00:42:00.209Z,99.90
2018-02-17T00:44:27.701Z,99.90
2018-02-17T00:46:55.178Z,99.90
2018-02-17T00:49:22.641Z,99.90
2018-02-17T00:51:50.119Z,99.90
2018-02-17T00:54:17.581Z,99.90
2018-02-17T00:56:45.067Z,99.90
2018-02-17T00:59:13.309Z,99.90
2018-02-17T01:01:40.921Z,99.90
2018-02-17T01:04:09.232Z,99.90
2018-02-17T01:06:36.852Z,99.90
2018-02-17T01:09:05.104Z,99.90
2018-02-17T01:11:32.570Z,99.90
2018-02-17T01:14:00.528Z,99.90
2018-02-17T01:16:28.026Z,99.90
2018-02-17T01:18:56.459Z,99.90
2018-02-17T01:21:24.031Z,99.90
2018-02-17T01:23:51.591Z,99.90
2018-02-17T01:26:19.060Z,99.90
2018-02-17T01:28:46.538Z,99.90
2018-02-17T01:31:14.761Z,99.90
2018-02-17T01:33:42.233Z,99.90
2018-02-17T01:36:09.734Z,99.90
2018-02-17T01:38:37.223Z,99.90
2018-02-17T01:41:04.703Z,99.90
2018-02-17T01:43:32.180Z,99.90
2018-02-17T01:45:59.647Z,99.90
2018-02-17T01:48:27.885Z,99.90
2018-02-17T01:50:55.370Z,99.90
2018-02-17T01:53:22.853Z,99.90
2018-02-17T01:55:51.080Z,99.90
2018-02-17T01:58:18.553Z,99.90
2018-02-17T02:00:46.023Z,99.90
2018-02-17T02:03:13.493Z,99.90
2018-02-17T02:05:41.736Z,99.90
2018-02-17T02:08:09.207Z,99.90
2018-02-17T02:10:36.731Z,99.90
2018-02-17T02:13:04.305Z,99.90
2018-02-17T02:15:31.780Z,99.90
2018-02-17T02:17:59.264Z,99.90
2018-02-17T02:20:27.502Z,99.90
2018-02-17T02:22:55.001Z,99.90
2018-02-17T02:25:22.529Z,99.90
2018-02-17T02:27:50.252Z,99.90
2018-02-17T02:30:17.738Z,99.90
2018-02-17T02:32:45.279Z,99.90
2018-02-17T02:35:12.764Z,99.90
2018-02-17T02:37:40.232Z,99.90
2018-02-17T02:40:08.481Z,99.90
2018-02-17T02:42:35.944Z,99.90
2018-02-17T02:45:03.417Z,99.90
2018-02-17T02:47:31.769Z,99.90
2018-02-17T02:49:59.520Z,99.90
2018-02-17T02:52:27.194Z,99.90
2018-02-17T02:54:54.648Z,99.90
2018-02-17T02:57:22.349Z,99.90
2018-02-17T02:59:49.970Z,99.90
2018-02-17T03:02:17.467Z,99.90
2018-02-17T03:04:44.921Z,99.90
2018-02-17T03:07:12.477Z,99.90
2018-02-17T03:09:39.938Z,99.90
2018-02-17T03:12:07.406Z,99.90
2018-02-17T03:14:35.630Z,99.90
2018-02-17T03:17:03.126Z,99.90
2018-02-17T03:19:30.699Z,99.90
2018-02-17T03:21:58.928Z,99.90
2018-02-17T03:24:26.405Z,99.90
2018-02-17T03:26:54.648Z,99.90
2018-02-17T03:29:22.121Z,99.90
2018-02-17T03:31:49.625Z,99.90
2018-02-17T03:34:18.041Z,99.90
2018-02-17T03:36:45.537Z,99.90
2018-02-17T03:39:13.008Z,99.90
2018-02-17T03:41:41.268Z,99.90
2018-02-17T03:44:08.736Z,99.90
2018-02-17T03:46:36.247Z,99.90
2018-02-17T03:49:03.781Z,99.90
2018-02-17T03:51:31.237Z,99.90
2018-02-17T03:53:58.709Z,99.90
2018-02-17T03:56:26.241Z,99.90
2018-02-17T03:58:54.596Z,99.90
2018-02-17T04:01:22.058Z,99.90
2018-02-17T04:03:50.295Z,99.90
2018-02-17T04:06:17.770Z,99.90
2018-02-17T04:08:45.245Z,99.90
2018-02-17T04:11:12.709Z,99.90
2018-02-17T04:13:40.947Z,99.90
2018-02-17T04:16:08.417Z,99.90
2018-02-17T04:18:35.878Z,99.90
2018-02-17T04:21:03.345Z,99.90
2018-02-17T04:23:31.573Z,99.90
2018-02-17T04:25:59.050Z,99.90
2018-02-17T04:28:26.522Z,99.90
2018-02-17T04:30:53.993Z,99.90
2018-02-17T04:33:22.245Z,99.90
2018-02-17T04:35:49.824Z,99.90
2018-02-17T04:38:17.296Z,99.90
2018-02-17T04:41:00.414Z,99.90
2018-02-17T04:43:29.492Z,99.90
2018-02-17T04:45:58.912Z,99.90
2018-02-17T04:48:38.070Z,99.90
2018-02-17T04:51:11.537Z,99.90
2018-02-17T04:53:57.590Z,99.90
2018-02-17T04:56:41.725Z,99.90
2018-02-17T04:59:25.900Z,99.90
2018-02-17T05:01:59.176Z,99.90
2018-02-17T05:04:27.472Z,99.90
2018-02-17T05:07:00.665Z,99.90
2018-02-17T05:09:28.278Z,99.90
2018-02-17T05:11:55.732Z,99.90
2018-02-17T05:14:24.019Z,99.90
2018-02-17T05:16:51.483Z,99.90
2018-02-17T05:19:33.840Z,99.90
2018-02-17T05:22:06.632Z,99.90
2018-02-17T05:24:34.102Z,99.90
2018-02-17T05:27:07.380Z,99.90
2018-02-17T05:29:51.478Z,99.90
2018-02-17T05:32:36.580Z,99.90
2018-02-17T05:35:05.491Z,99.90
2018-02-17T05:37:32.949Z,99.90
2018-02-17T05:40:00.897Z,99.90
2018-02-17T05:42:30.090Z,99.90
2018-02-17T05:45:14.027Z,99.90
2018-02-17T05:47:43.293Z,99.90
2018-02-17T05:50:10.779Z,99.90
2018-02-17T05:52:38.400Z,99.90
2018-02-17T05:55:05.887Z,99.90
2018-02-17T05:57:33.545Z,99.90
2018-02-17T06:00:01.112Z,99.90
2018-02-17T06:02:29.541Z,99.90
2018-02-17T06:04:57.206Z,99.90
2018-02-17T06:07:24.765Z,99.90
2018-02-17T06:09:52.267Z,99.90
2018-02-17T06:12:20.576Z,99.90
2018-02-17T06:14:48.056Z,99.90
2018-02-17T06:17:15.532Z,99.90
2018-02-17T06:19:43.000Z,99.90
2018-02-17T06:22:10.543Z,99.90
2018-02-17T06:24:38.040Z,99.90
2018-02-17T06:27:06.496Z,99.90
2018-02-17T06:29:34.158Z,99.90
2018-02-17T06:32:01.696Z,99.90
2018-02-17T06:34:29.169Z,99.90
2018-02-17T06:36:56.637Z,99.90
2018-02-17T06:39:24.110Z,99.90
2018-02-17T06:41:51.589Z,99.90
2018-02-17T06:44:19.053Z,99.90
2018-02-17T06:46:46.526Z,99.90
2018-02-17T06:49:13.988Z,99.90
2018-02-17T06:51:41.463Z,99.90
2018-02-17T06:54:08.962Z,99.90
2018-02-17T06:56:37.198Z,99.90
2018-02-17T06:59:04.673Z,99.90
2018-02-17T07:01:32.137Z,99.90
2018-02-17T07:03:59.607Z,99.90
2018-02-17T07:06:27.882Z,99.90
2018-02-17T07:08:56.131Z,99.90
2018-02-17T07:11:23.597Z,99.90
2018-02-17T07:13:51.963Z,99.90
2018-02-17T07:16:19.429Z,99.90
2018-02-17T07:18:46.904Z,99.90
2018-02-17T07:21:15.136Z,99.90
2018-02-17T07:23:42.733Z,99.90
2018-02-17T07:26:10.193Z,99.90
2018-02-17T07:28:38.436Z,99.90
2018-02-17T07:31:05.913Z,99.90
2018-02-17T07:33:33.381Z,99.90
2018-02-17T07:36:01.631Z,99.90
2018-02-17T07:38:29.094Z,99.90
2018-02-17T07:40:56.621Z,99.90
2018-02-17T07:43:24.090Z,99.90
2018-02-17T07:45:51.590Z,99.90
2018-02-17T07:48:19.828Z,99.90
2018-02-17T07:50:47.418Z,99.90
2018-02-17T07:53:15.652Z,99.90
2018-02-17T07:55:43.118Z,99.90
2018-02-17T07:58:10.605Z,99.90
2018-02-17T08:00:38.832Z,99.90
2018-02-17T08:03:06.401Z,99.90
2018-02-17T08:05:33.865Z,99.90
2018-02-17T08:08:01.342Z,99.90
2018-02-17T08:10:28.805Z,99.90
2018-02-17T08:12:56.290Z,99.90
2018-02-17T08:15:23.825Z,99.90
2018-02-17T08:17:51.272Z,99.90
2018-02-17T08:20:18.729Z,99.90
2018-02-17T08:22:46.240Z,99.90
2018-02-17T08:25:13.698Z,99.90
2018-02-17T08:27:41.305Z,99.90
2018-02-17T08:30:08.890Z,99.90
2018-02-17T08:32:36.380Z,99.90
2018-02-17T08:35:03.845Z,99.90
2018-02-17T08:37:31.321Z,99.90
2018-02-17T08:39:58.834Z,99.90
2018-02-17T08:42:26.305Z,99.90
2018-02-17T08:44:53.773Z,99.90
2018-02-17T08:47:21.326Z,99.90
2018-02-17T08:49:48.804Z,99.90
2018-02-17T08:52:16.311Z,99.90
2018-02-17T08:54:44.568Z,99.90
2018-02-17T08:57:12.890Z,99.90
2018-02-17T08:59:40.374Z,99.90
2018-02-17T09:02:07.868Z,99.90
2018-02-17T09:04:36.175Z,99.90
2018-02-17T09:07:03.785Z,99.90
2018-02-17T09:09:31.453Z,99.90
2018-02-17T09:11:59.225Z,99.90
2018-02-17T09:14:32.774Z,99.90
2018-02-17T09:17:00.236Z,99.90
2018-02-17T09:19:27.714Z,99.90
2018-02-17T09:21:55.252Z,99.90
2018-02-17T09:24:22.718Z,99.90
2018-02-17T09:26:50.205Z,99.90
2018-02-17T09:29:17.705Z,99.90
2018-02-17T09:31:45.190Z,99.90
2018-02-17T09:34:12.725Z,99.90
2018-02-17T09:36:40.219Z,99.90
2018-02-17T09:39:07.697Z,99.90
2018-02-17T09:41:35.954Z,99.90
2018-02-17T09:44:03.452Z,99.90
2018-02-17T09:46:31.719Z,99.90
2018-02-17T09:48:59.941Z,99.90
2018-02-17T09:51:27.462Z,99.90
2018-02-17T09:53:54.939Z,99.90
2018-02-17T09:56:22.417Z,99.90
2018-02-17T09:58:50.099Z,99.90
2018-02-17T10:01:18.341Z,99.90
2018-02-17T10:03:45.817Z,99.90
2018-02-17T10:06:13.389Z,99.90
2018-02-17T10:08:40.874Z,99.90
2018-02-17T10:11:09.121Z,99.90
2018-02-17T10:13:36.598Z,99.90
2018-02-17T10:16:04.825Z,99.90
2018-02-17T10:18:32.571Z,99.90
2018-02-17T10:21:00.106Z,99.90
2018-02-17T10:23:28.397Z,99.90
2018-02-17T10:25:56.651Z,99.90
2018-02-17T10:28:24.934Z,99.90
2018-02-17T10:30:53.875Z,99.90
2018-02-17T10:33:21.362Z,99.90
2018-02-17T10:35:48.836Z,99.60
2018-02-17T10:38:17.085Z,99.90
2018-02-17T10:40:44.559Z,99.90
2018-02-17T10:43:12.794Z,99.30
2018-02-17T10:45:40.290Z,99.30
2018-02-17T10:48:08.566Z,99.70
2018-02-17T10:50:36.026Z,99.70
2018-02-17T10:53:03.484Z,99.40
2018-02-17T10:55:37.647Z,98.50
2018-02-17T10:58:05.269Z,98.50
2018-02-17T11:00:33.525Z,99.00
2018-02-17T11:03:00.988Z,98.90
2018-02-17T11:05:28.591Z,98.20
2018-02-17T11:07:57.343Z,98.40
2018-02-17T11:10:25.827Z,98.90
2018-02-17T11:12:54.113Z,98.40
2018-02-17T11:15:21.622Z,98.40
2018-02-17T11:17:49.112Z,98.20
2018-02-17T11:20:17.363Z,97.80
2018-02-17T11:22:44.838Z,97.80
2018-02-17T11:25:13.078Z,98.10
2018-02-17T11:27:40.554Z,98.00
2018-02-17T11:30:08.562Z,96.50
2018-02-17T11:32:36.116Z,98.00
2018-02-17T11:35:04.389Z,95.60
2018-02-17T11:37:31.825Z,95.50
2018-02-17T11:40:00.151Z,96.50
2018-02-17T11:42:31.791Z,96.50
2018-02-17T11:44:59.283Z,96.00
2018-02-17T11:47:26.766Z,95.80
2018-02-17T11:49:54.694Z,95.40
2018-02-17T11:52:22.153Z,93.80
2018-02-17T11:54:49.628Z,94.30
2018-02-17T11:57:17.121Z,94.40
2018-02-17T11:59:45.349Z,94.20
2018-02-17T12:02:12.847Z,94.20
2018-02-17T12:04:40.667Z,94.90
2018-02-17T12:07:08.222Z,94.80
2018-02-17T12:09:35.732Z,93.30
2018-02-17T12:12:03.244Z,94.80
2018-02-17T12:14:30.750Z,94.40
2018-02-17T12:16:59.038Z,93.70
2018-02-17T12:19:26.477Z,93.70
2018-02-17T12:21:54.942Z,93.60
2018-02-17T12:24:22.415Z,93.50
2018-02-17T12:26:49.922Z,93.60
2018-02-17T12:29:17.494Z,93.70
2018-02-17T12:31:45.102Z,92.50
2018-02-17T12:34:13.366Z,90.30
2018-02-17T12:36:40.819Z,90.20
2018-02-17T12:39:08.329Z,87.50
2018-02-17T12:41:35.803Z,86.60
2018-02-17T12:44:03.282Z,83.90
2018-02-17T12:46:30.800Z,82.60
2018-02-17T12:48:58.277Z,80.60
2018-02-17T12:51:25.747Z,79.60
2018-02-17T12:53:53.221Z,77.00
2018-02-17T12:56:20.748Z,77.00
2018-02-17T12:58:48.337Z,77.20
2018-02-17T13:01:15.773Z,78.20
2018-02-17T13:03:43.276Z,74.50
2018-02-17T13:06:11.529Z,75.50
2018-02-17T13:08:39.006Z,75.50
2018-02-17T13:11:07.251Z,79.00
2018-02-17T13:13:34.999Z,79.00
2018-02-17T13:16:02.486Z,78.30
2018-02-17T13:18:29.953Z,78.20
2018-02-17T13:20:58.216Z,81.10
2018-02-17T13:23:25.681Z,81.20
2018-02-17T13:25:53.947Z,82.00
2018-02-17T13:28:26.236Z,81.90
2018-02-17T13:30:54.476Z,87.50
2018-02-17T13:33:21.947Z,87.50
2018-02-17T13:35:49.450Z,87.00
2018-02-17T13:38:16.910Z,88.50
2018-02-17T13:40:44.529Z,87.90
2018-02-17T13:43:12.802Z,87.70
2018-02-17T13:45:40.257Z,87.70
2018-02-17T13:48:08.504Z,88.60
2018-02-17T13:50:35.979Z,88.70
2018-02-17T13:53:03.446Z,89.00
2018-02-17T13:55:31.043Z,89.70
2018-02-17T13:57:58.662Z,88.00
2018-02-17T14:00:27.630Z,90.40
2018-02-17T14:02:55.105Z,90.40
2018-02-17T14:05:22.581Z,91.10
2018-02-17T14:07:50.982Z,91.40
2018-02-17T14:10:18.463Z,91.40
2018-02-17T14:12:45.956Z,91.60
2018-02-17T14:15:13.416Z,91.90
2018-02-17T14:17:40.985Z,91.90
2018-02-17T14:20:08.449Z,93.10
2018-02-17T14:22:36.689Z,91.70
2018-02-17T14:25:04.174Z,91.70
2018-02-17T14:27:32.549Z,90.10
2018-02-17T14:30:00.916Z,91.80
2018-02-17T14:32:28.502Z,92.10
2018-02-17T14:34:56.754Z,91.80
2018-02-17T14:37:24.238Z,91.80
2018-02-17T14:39:53.231Z,92.40
2018-02-17T14:42:21.474Z,94.00
2018-02-17T14:44:48.953Z,94.00
2018-02-17T14:47:17.750Z,92.80
2018-02-17T14:49:46.039Z,92.90
2018-02-17T14:52:14.427Z,92.30
2018-02-17T14:54:42.025Z,92.30
2018-02-17T14:57:09.532Z,92.60
2018-02-17T14:59:37.212Z,93.00
2018-02-17T15:02:04.693Z,93.00
2018-02-17T15:04:32.433Z,92.90
2018-02-17T15:06:59.917Z,93.40
2018-02-17T15:09:27.431Z,93.80
2018-02-17T15:11:54.913Z,94.10
2018-02-17T15:14:22.394Z,93.60
2018-02-17T15:16:49.872Z,94.20
2018-02-17T15:19:17.337Z,94.40
2018-02-17T15:21:45.628Z,95.20
2018-02-17T15:24:13.902Z,94.90
2018-02-17T15:26:42.137Z,94.60
2018-02-17T15:29:09.621Z,94.60
2018-02-17T15:31:37.865Z,94.90
2018-02-17T15:34:05.398Z,94.90
2018-02-17T15:36:32.956Z,95.10
2018-02-17T15:39:00.591Z,95.00
2018-02-17T15:41:28.892Z,94.90
2018-02-17T15:43:56.378Z,94.90
2018-02-17T15:46:23.825Z,95.10
2018-02-17T15:48:51.518Z,94.90
2018-02-17T15:51:18.984Z,94.20
2018-02-17T15:53:47.248Z,95.10
2018-02-17T15:56:14.708Z,95.10
2018-02-17T15:58:42.213Z,95.00
2018-02-17T16:01:09.889Z,95.20
2018-02-17T16:03:37.441Z,95.40
2018-02-17T16:06:04.909Z,95.50
2018-02-17T16:08:32.374Z,95.80
2018-02-17T16:10:59.930Z,96.10
2018-02-17T16:13:27.566Z,96.30
2018-02-17T16:15:55.045Z,96.30
2018-02-17T16:18:22.525Z,96.20
2018-02-17T16:20:49.989Z,96.20
2018-02-17T16:23:17.454Z,96.00
2018-02-17T16:25:44.936Z,96.50
2018-02-17T16:28:12.463Z,96.30
2018-02-17T16:30:39.971Z,96.40
2018-02-17T16:33:07.437Z,96.40
2018-02-17T16:35:34.983Z,96.60
2018-02-17T16:38:08.373Z,96.50
2018-02-17T16:40:35.854Z,96.60
2018-02-17T16:43:03.395Z,97.00
2018-02-17T16:45:30.963Z,97.40
2018-02-17T16:47:58.457Z,97.10
2018-02-17T16:50:25.914Z,97.10
2018-02-17T16:52:53.407Z,97.50
2018-02-17T16:55:21.735Z,97.60
2018-02-17T16:57:49.385Z,97.60
2018-02-17T17:00:16.864Z,98.00
2018-02-17T17:02:44.537Z,97.90
2018-02-17T17:05:12.165Z,98.40
2018-02-17T17:07:39.638Z,98.30
2018-02-17T17:10:07.113Z,98.40
2018-02-17T17:12:34.590Z,98.50
2018-02-17T17:15:02.848Z,98.70
2018-02-17T17:17:30.329Z,98.70
2018-02-17T17:19:58.571Z,98.60
2018-02-17T17:22:26.090Z,98.50
2018-02-17T17:24:53.569Z,98.60
2018-02-17T17:27:21.049Z,98.70
2018-02-17T17:29:48.531Z,98.60
2018-02-17T17:32:16.769Z,98.80
2018-02-17T17:34:44.256Z,98.80
2018-02-17T17:37:12.678Z,99.10
2018-02-17T17:39:40.279Z,99.10
2018-02-17T17:42:07.787Z,99.30
2018-02-17T17:44:35.273Z,99.70
2018-02-17T17:47:02.756Z,99.90
2018-02-17T17:49:30.994Z,99.90
2018-02-17T17:51:58.478Z,99.90
2018-02-17T17:54:26.053Z,99.90
2018-02-17T17:56:53.596Z,99.90
2018-02-17T17:59:21.120Z,99.90
2018-02-17T18:01:49.665Z,99.90
2018-02-17T18:04:17.244Z,99.90
2018-02-17T18:06:44.958Z,99.90
2018-02-17T18:09:12.686Z,99.90
2018-02-17T18:11:40.456Z,99.90
2018-02-17T18:14:08.058Z,99.90
2018-02-17T18:16:36.439Z,99.90
2018-02-17T18:19:04.739Z,99.90
2018-02-17T18:21:32.347Z,99.90
2018-02-17T18:24:00.038Z,99.90
2018-02-17T18:26:27.688Z,99.90
2018-02-17T18:28:56.397Z,99.90
2018-02-17T18:31:24.058Z,99.90
2018-02-17T18:33:51.857Z,99.90
2018-02-17T18:36:19.573Z,99.90
2018-02-17T18:38:47.131Z,99.90
2018-02-17T18:41:15.568Z,99.90
2018-02-17T18:43:43.128Z,99.90
2018-02-17T18:46:10.668Z,99.90
2018-02-17T18:48:38.145Z,99.90
2018-02-17T18:51:05.649Z,99.90
2018-02-17T18:53:33.917Z,99.90
2018-02-17T18:56:01.434Z,99.90
2018-02-17T18:58:28.976Z,99.90
2018-02-17T19:00:56.474Z,99.90
2018-02-17T19:03:23.948Z,99.90
2018-02-17T19:05:51.428Z,99.90
2018-02-17T19:08:19.065Z,99.90
2018-02-17T19:10:47.361Z,99.90
2018-02-17T19:13:15.643Z,99.90
2018-02-17T19:15:43.257Z,99.90
2018-02-17T19:18:11.273Z,99.90
2018-02-17T19:20:38.957Z,99.90
2018-02-17T19:23:06.522Z,99.90
2018-02-17T19:25:34.076Z,99.90
2018-02-17T19:28:01.614Z,99.90
2018-02-17T19:30:29.149Z,99.90
2018-02-17T19:32:56.728Z,99.90
2018-02-17T19:35:24.318Z,99.90
2018-02-17T19:37:51.880Z,99.90
2018-02-17T19:40:19.383Z,99.90
2018-02-17T19:42:47.820Z,99.90
2018-02-17T19:45:15.328Z,99.90
2018-02-17T19:47:42.998Z,99.90
2018-02-17T19:50:10.563Z,99.90
2018-02-17T19:52:38.138Z,99.90
2018-02-17T19:55:06.609Z,99.90
2018-02-17T19:57:34.134Z,99.90
2018-02-17T20:00:01.751Z,99.90
2018-02-17T20:02:29.268Z,99.90
2018-02-17T20:04:57.525Z,99.90
2018-02-17T20:07:24.989Z,99.90
2018-02-17T20:09:53.242Z,99.90
2018-02-17T20:12:20.731Z,99.90
2018-02-17T20:14:48.962Z,99.90
2018-02-17T20:17:16.416Z,99.90
2018-02-17T20:19:44.019Z,99.90
2018-02-17T20:22:12.249Z,99.90
2018-02-17T20:24:39.728Z,99.90
2018-02-17T20:27:07.216Z,99.90
2018-02-17T20:29:35.481Z,99.90
2018-02-17T20:32:03.764Z,99.90
2018-02-17T20:34:31.270Z,99.90
2018-02-17T20:36:58.760Z,99.90
2018-02-17T20:39:26.508Z,99.90
2018-02-17T20:41:54.020Z,99.90
2018-02-17T20:44:21.524Z,99.90
2018-02-17T20:46:49.029Z,99.90
2018-02-17T20:49:16.524Z,99.90
2018-02-17T20:51:44.069Z,99.90
2018-02-17T20:54:11.588Z,99.90
2018-02-17T20:56:39.855Z,99.90
2018-02-17T20:59:08.126Z,99.90
2018-02-17T21:01:36.383Z,99.90
2018-02-17T21:04:04.806Z,99.90
2018-02-17T21:06:33.072Z,99.90
2018-02-17T21:09:01.375Z,99.90
2018-02-17T21:11:28.873Z,99.90
2018-02-17T21:13:56.372Z,99.90
2018-02-17T21:16:23.850Z,99.90
2018-02-17T21:18:51.328Z,99.90
2018-02-17T21:21:18.830Z,99.90
2018-02-17T21:23:47.195Z,99.90
2018-02-17T21:26:14.655Z,99.90
2018-02-17T21:28:42.141Z,99.90
2018-02-17T21:31:09.662Z,99.90
2018-02-17T21:33:37.142Z,99.90
2018-02-17T21:36:05.481Z,99.90
2018-02-17T21:38:32.992Z,99.90
2018-02-17T21:41:01.246Z,99.90
2018-02-17T21:43:28.764Z,99.90
2018-02-17T21:45:56.266Z,99.90
2018-02-17T21:48:24.515Z,99.90
2018-02-17T21:50:52.005Z,99.90
2018-02-17T21:53:20.261Z,99.90
2018-02-17T21:55:47.774Z,99.90
2018-02-17T21:58:15.245Z,99.90
2018-02-17T22:00:42.774Z,99.90
2018-02-17T22:03:11.233Z,99.90
2018-02-17T22:05:39.508Z,99.90
2018-02-17T22:08:07.166Z,99.90
2018-02-17T22:10:35.422Z,99.90
2018-02-17T22:13:02.897Z,99.90
2018-02-17T22:15:31.158Z,99.90
2018-02-17T22:17:58.663Z,99.90
2018-02-17T22:20:26.144Z,99.90
2018-02-17T22:22:53.628Z,99.90
2018-02-17T22:25:21.104Z,99.90
2018-02-17T22:27:50.058Z,99.90
2018-02-17T22:30:17.518Z,99.90
2018-02-17T22:32:44.994Z,99.90
2018-02-17T22:35:13.234Z,99.90
2018-02-17T22:37:40.743Z,99.90
2018-02-17T22:40:08.987Z,99.90
2018-02-17T22:42:36.474Z,99.90
2018-02-17T22:45:04.711Z,99.90
2018-02-17T22:47:32.193Z,99.90
2018-02-17T22:49:59.665Z,99.90
2018-02-17T22:52:27.966Z,99.90
2018-02-17T22:54:55.443Z,99.90
2018-02-17T22:57:22.929Z,99.90
2018-02-17T22:59:50.482Z,99.90
2018-02-17T23:02:18.039Z,99.90
2018-02-17T23:04:45.546Z,99.90
2018-02-17T23:07:13.011Z,99.90
2018-02-17T23:09:40.502Z,99.90
2018-02-17T23:12:08.091Z,99.90
2018-02-17T23:14:35.569Z,99.90
2018-02-17T23:17:03.037Z,99.90
2018-02-17T23:19:30.535Z,99.90
2018-02-17T23:21:57.996Z,99.90
2018-02-17T23:24:25.490Z,99.90
2018-02-17T23:26:53.870Z,99.90
2018-02-17T23:29:22.197Z,99.90
2018-02-17T23:31:50.517Z,99.90
2018-02-17T23:34:18.766Z,99.90
2018-02-17T23:36:46.250Z,99.90
2018-02-17T23:39:14.539Z,99.90
2018-02-17T23:41:42.789Z,99.90
2018-02-17T23:44:10.253Z,99.90
2018-02-17T23:46:38.503Z,99.90
2018-02-17T23:49:05.971Z,99.90
2018-02-17T23:51:33.445Z,99.90
2018-02-17T23:54:01.682Z,99.90
2018-02-17T23:56:29.177Z,99.90
2018-02-17T23:58:56.633Z,99.90
